sensor_id;sensor_type;location;lat;lon;timestamp;P1;durP1;ratioP1;P2;durP2;ratioP2
53519;SDS011;39397;53.204;5.778;2023-12-20T00:01:23;16.33;;;2.75;;
53519;SDS011;39397;53.204;5.778;2023-12-20T00:03:49;16.65;;;2.58;;
53519;SDS011;39397;53.204;5.778;2023-12-20T00:06:14;18.23;;;3.58;;
53519;SDS011;39397;53.204;5.778;2023-12-20T00:08:40;20.10;;;2.65;;
53519;SDS011;39397;53.204;5.778;2023-12-20T00:11:06;20.08;;;4.40;;
53519;SDS011;39397;53.204;5.778;2023-12-20T00:13:31;21.90;;;3.47;;
53519;SDS011;39397;53.204;5.778;2023-12-20T00:15:57;22.30;;;4.13;;
53519;SDS011;39397;53.204;5.778;2023-12-20T00:18:23;20.55;;;3.53;;
53519;SDS011;39397;53.204;5.778;2023-12-20T00:20:48;18.00;;;2.80;;
53519;SDS011;39397;53.204;5.778;2023-12-20T00:23:14;18.23;;;2.72;;
53519;SDS011;39397;53.204;5.778;2023-12-20T00:25:40;19.52;;;3.05;;
53519;SDS011;39397;53.204;5.778;2023-12-20T00:28:06;17.35;;;3.58;;
53519;SDS011;39397;53.204;5.778;2023-12-20T00:30:31;20.60;;;3.67;;
53519;SDS011;39397;53.204;5.778;2023-12-20T00:32:57;20.55;;;3.25;;
53519;SDS011;39397;53.204;5.778;2023-12-20T00:35:23;18.08;;;3.00;;
53519;SDS011;39397;53.204;5.778;2023-12-20T00:37:49;14.45;;;2.97;;
53519;SDS011;39397;53.204;5.778;2023-12-20T00:40:14;19.15;;;3.75;;
53519;SDS011;39397;53.204;5.778;2023-12-20T00:42:40;23.80;;;3.55;;
53519;SDS011;39397;53.204;5.778;2023-12-20T00:45:06;17.92;;;3.13;;
53519;SDS011;39397;53.204;5.778;2023-12-20T00:47:32;17.10;;;4.80;;
53519;SDS011;39397;53.204;5.778;2023-12-20T00:49:58;23.17;;;3.03;;
53519;SDS011;39397;53.204;5.778;2023-12-20T00:52:24;20.95;;;3.33;;
53519;SDS011;39397;53.204;5.778;2023-12-20T00:54:50;21.02;;;3.30;;
53519;SDS011;39397;53.204;5.778;2023-12-20T00:57:16;19.77;;;3.15;;
53519;SDS011;39397;53.204;5.778;2023-12-20T00:59:41;19.05;;;2.80;;
53519;SDS011;39397;53.204;5.778;2023-12-20T01:02:07;19.77;;;3.10;;
53519;SDS011;39397;53.204;5.778;2023-12-20T01:04:34;20.58;;;3.45;;
53519;SDS011;39397;53.204;5.778;2023-12-20T01:06:59;18.63;;;2.58;;
53519;SDS011;39397;53.204;5.778;2023-12-20T01:09:25;18.50;;;3.10;;
53519;SDS011;39397;53.204;5.778;2023-12-20T01:11:53;27.20;;;3.97;;
53519;SDS011;39397;53.204;5.778;2023-12-20T01:14:19;21.33;;;3.35;;
53519;SDS011;39397;53.204;5.778;2023-12-20T01:16:45;23.02;;;3.42;;
53519;SDS011;39397;53.204;5.778;2023-12-20T01:19:11;29.40;;;5.57;;
53519;SDS011;39397;53.204;5.778;2023-12-20T01:21:38;18.83;;;2.75;;
53519;SDS011;39397;53.204;5.778;2023-12-20T01:24:04;18.70;;;2.88;;
53519;SDS011;39397;53.204;5.778;2023-12-20T01:26:30;23.02;;;3.30;;
53519;SDS011;39397;53.204;5.778;2023-12-20T01:28:56;20.85;;;3.63;;
53519;SDS011;39397;53.204;5.778;2023-12-20T01:31:21;18.73;;;2.95;;
53519;SDS011;39397;53.204;5.778;2023-12-20T01:33:47;22.70;;;3.33;;
53519;SDS011;39397;53.204;5.778;2023-12-20T01:36:13;24.00;;;3.58;;
53519;SDS011;39397;53.204;5.778;2023-12-20T01:38:38;26.30;;;3.40;;
53519;SDS011;39397;53.204;5.778;2023-12-20T01:41:04;25.45;;;3.72;;
53519;SDS011;39397;53.204;5.778;2023-12-20T01:43:30;23.90;;;3.53;;
53519;SDS011;39397;53.204;5.778;2023-12-20T01:45:56;25.45;;;4.50;;
53519;SDS011;39397;53.204;5.778;2023-12-20T01:48:23;28.95;;;4.63;;
53519;SDS011;39397;53.204;5.778;2023-12-20T01:50:50;27.20;;;3.85;;
53519;SDS011;39397;53.204;5.778;2023-12-20T01:53:16;29.92;;;4.55;;
53519;SDS011;39397;53.204;5.778;2023-12-20T01:55:44;16.42;;;3.47;;
53519;SDS011;39397;53.204;5.778;2023-12-20T01:58:10;21.90;;;4.60;;
53519;SDS011;39397;53.204;5.778;2023-12-20T02:00:37;22.50;;;3.53;;
53519;SDS011;39397;53.204;5.778;2023-12-20T02:03:03;24.15;;;4.13;;
53519;SDS011;39397;53.204;5.778;2023-12-20T02:05:30;30.85;;;3.95;;
53519;SDS011;39397;53.204;5.778;2023-12-20T02:07:56;27.27;;;3.88;;
53519;SDS011;39397;53.204;5.778;2023-12-20T02:10:22;22.73;;;5.05;;
53519;SDS011;39397;53.204;5.778;2023-12-20T02:12:49;24.15;;;4.40;;
53519;SDS011;39397;53.204;5.778;2023-12-20T02:15:15;22.73;;;4.70;;
53519;SDS011;39397;53.204;5.778;2023-12-20T02:17:40;21.70;;;4.70;;
53519;SDS011;39397;53.204;5.778;2023-12-20T02:20:07;19.65;;;4.05;;
53519;SDS011;39397;53.204;5.778;2023-12-20T02:22:33;29.23;;;5.00;;
53519;SDS011;39397;53.204;5.778;2023-12-20T02:24:58;23.67;;;4.43;;
53519;SDS011;39397;53.204;5.778;2023-12-20T02:27:24;19.25;;;3.22;;
53519;SDS011;39397;53.204;5.778;2023-12-20T02:29:50;22.15;;;4.80;;
53519;SDS011;39397;53.204;5.778;2023-12-20T02:32:17;29.13;;;5.10;;
53519;SDS011;39397;53.204;5.778;2023-12-20T02:34:43;23.40;;;4.68;;
53519;SDS011;39397;53.204;5.778;2023-12-20T02:37:09;21.38;;;3.50;;
53519;SDS011;39397;53.204;5.778;2023-12-20T02:39:35;22.67;;;4.60;;
53519;SDS011;39397;53.204;5.778;2023-12-20T02:42:00;24.00;;;5.40;;
53519;SDS011;39397;53.204;5.778;2023-12-20T02:44:26;20.55;;;3.85;;
53519;SDS011;39397;53.204;5.778;2023-12-20T02:46:52;20.67;;;3.90;;
53519;SDS011;39397;53.204;5.778;2023-12-20T02:49:17;21.80;;;3.78;;
53519;SDS011;39397;53.204;5.778;2023-12-20T02:51:43;26.08;;;3.63;;
53519;SDS011;39397;53.204;5.778;2023-12-20T02:54:09;18.10;;;3.78;;
53519;SDS011;39397;53.204;5.778;2023-12-20T02:56:34;35.55;;;4.47;;
53519;SDS011;39397;53.204;5.778;2023-12-20T02:59:00;23.00;;;3.92;;
53519;SDS011;39397;53.204;5.778;2023-12-20T03:01:27;27.00;;;3.70;;
53519;SDS011;39397;53.204;5.778;2023-12-20T03:03:54;22.33;;;4.32;;
53519;SDS011;39397;53.204;5.778;2023-12-20T03:06:19;19.92;;;4.45;;
53519;SDS011;39397;53.204;5.778;2023-12-20T03:08:45;21.08;;;3.58;;
53519;SDS011;39397;53.204;5.778;2023-12-20T03:11:11;21.85;;;3.40;;
53519;SDS011;39397;53.204;5.778;2023-12-20T03:13:37;17.40;;;3.72;;
53519;SDS011;39397;53.204;5.778;2023-12-20T03:16:09;26.58;;;3.30;;
53519;SDS011;39397;53.204;5.778;2023-12-20T03:18:36;21.20;;;3.40;;
53519;SDS011;39397;53.204;5.778;2023-12-20T03:21:02;25.30;;;5.28;;
53519;SDS011;39397;53.204;5.778;2023-12-20T03:23:29;20.90;;;4.22;;
53519;SDS011;39397;53.204;5.778;2023-12-20T03:25:55;25.27;;;4.35;;
53519;SDS011;39397;53.204;5.778;2023-12-20T03:28:21;21.23;;;4.03;;
53519;SDS011;39397;53.204;5.778;2023-12-20T03:30:48;19.05;;;3.15;;
53519;SDS011;39397;53.204;5.778;2023-12-20T03:33:14;21.50;;;5.05;;
53519;SDS011;39397;53.204;5.778;2023-12-20T03:35:39;21.92;;;3.75;;
53519;SDS011;39397;53.204;5.778;2023-12-20T03:38:05;22.10;;;4.35;;
53519;SDS011;39397;53.204;5.778;2023-12-20T03:40:31;31.15;;;4.55;;
53519;SDS011;39397;53.204;5.778;2023-12-20T03:42:57;17.73;;;3.30;;
53519;SDS011;39397;53.204;5.778;2023-12-20T03:45:22;18.58;;;3.13;;
53519;SDS011;39397;53.204;5.778;2023-12-20T03:47:48;22.20;;;3.58;;
53519;SDS011;39397;53.204;5.778;2023-12-20T03:50:14;22.95;;;4.10;;
53519;SDS011;39397;53.204;5.778;2023-12-20T03:52:40;23.73;;;4.70;;
53519;SDS011;39397;53.204;5.778;2023-12-20T03:55:06;26.67;;;4.65;;
53519;SDS011;39397;53.204;5.778;2023-12-20T03:57:32;25.40;;;4.25;;
53519;SDS011;39397;53.204;5.778;2023-12-20T03:59:58;25.63;;;4.32;;
53519;SDS011;39397;53.204;5.778;2023-12-20T04:02:23;20.98;;;3.67;;
53519;SDS011;39397;53.204;5.778;2023-12-20T04:04:49;27.35;;;5.80;;
53519;SDS011;39397;53.204;5.778;2023-12-20T04:07:15;27.23;;;5.63;;
53519;SDS011;39397;53.204;5.778;2023-12-20T04:09:41;23.70;;;3.30;;
53519;SDS011;39397;53.204;5.778;2023-12-20T04:12:06;23.27;;;4.28;;
53519;SDS011;39397;53.204;5.778;2023-12-20T04:14:32;28.10;;;4.47;;
53519;SDS011;39397;53.204;5.778;2023-12-20T04:16:58;31.42;;;5.20;;
53519;SDS011;39397;53.204;5.778;2023-12-20T04:19:24;22.85;;;4.97;;
53519;SDS011;39397;53.204;5.778;2023-12-20T04:21:49;23.15;;;4.93;;
53519;SDS011;39397;53.204;5.778;2023-12-20T04:24:15;23.00;;;4.25;;
53519;SDS011;39397;53.204;5.778;2023-12-20T04:26:41;14.77;;;2.53;;
53519;SDS011;39397;53.204;5.778;2023-12-20T04:29:07;25.45;;;3.85;;
53519;SDS011;39397;53.204;5.778;2023-12-20T04:31:32;33.78;;;5.43;;
53519;SDS011;39397;53.204;5.778;2023-12-20T04:33:58;26.83;;;5.22;;
53519;SDS011;39397;53.204;5.778;2023-12-20T04:36:24;17.80;;;3.00;;
53519;SDS011;39397;53.204;5.778;2023-12-20T04:38:52;25.63;;;5.20;;
53519;SDS011;39397;53.204;5.778;2023-12-20T04:41:18;23.92;;;4.28;;
53519;SDS011;39397;53.204;5.778;2023-12-20T04:43:44;25.50;;;4.88;;
53519;SDS011;39397;53.204;5.778;2023-12-20T04:46:10;21.67;;;4.60;;
53519;SDS011;39397;53.204;5.778;2023-12-20T04:48:36;28.33;;;3.63;;
53519;SDS011;39397;53.204;5.778;2023-12-20T04:51:02;25.15;;;4.20;;
53519;SDS011;39397;53.204;5.778;2023-12-20T04:53:27;21.55;;;4.13;;
53519;SDS011;39397;53.204;5.778;2023-12-20T04:55:53;24.38;;;4.10;;
53519;SDS011;39397;53.204;5.778;2023-12-20T04:58:19;21.50;;;4.10;;
53519;SDS011;39397;53.204;5.778;2023-12-20T05:00:44;28.42;;;4.20;;
53519;SDS011;39397;53.204;5.778;2023-12-20T05:03:10;19.65;;;3.55;;
53519;SDS011;39397;53.204;5.778;2023-12-20T05:05:36;20.33;;;4.10;;
53519;SDS011;39397;53.204;5.778;2023-12-20T05:08:03;24.58;;;4.22;;
53519;SDS011;39397;53.204;5.778;2023-12-20T05:10:29;26.27;;;4.57;;
53519;SDS011;39397;53.204;5.778;2023-12-20T05:12:54;28.40;;;4.78;;
53519;SDS011;39397;53.204;5.778;2023-12-20T05:15:20;20.55;;;3.72;;
53519;SDS011;39397;53.204;5.778;2023-12-20T05:17:46;24.80;;;4.05;;
53519;SDS011;39397;53.204;5.778;2023-12-20T05:20:11;23.17;;;4.30;;
53519;SDS011;39397;53.204;5.778;2023-12-20T05:22:41;24.38;;;4.25;;
53519;SDS011;39397;53.204;5.778;2023-12-20T05:25:06;23.58;;;4.18;;
53519;SDS011;39397;53.204;5.778;2023-12-20T05:27:32;27.63;;;3.90;;
53519;SDS011;39397;53.204;5.778;2023-12-20T05:29:58;23.95;;;4.97;;
53519;SDS011;39397;53.204;5.778;2023-12-20T05:32:24;28.13;;;4.55;;
53519;SDS011;39397;53.204;5.778;2023-12-20T05:34:50;21.85;;;4.22;;
53519;SDS011;39397;53.204;5.778;2023-12-20T05:37:16;22.55;;;4.30;;
53519;SDS011;39397;53.204;5.778;2023-12-20T05:39:41;18.50;;;3.22;;
53519;SDS011;39397;53.204;5.778;2023-12-20T05:42:07;21.42;;;3.83;;
53519;SDS011;39397;53.204;5.778;2023-12-20T05:44:33;26.80;;;4.78;;
53519;SDS011;39397;53.204;5.778;2023-12-20T05:46:58;18.95;;;3.45;;
53519;SDS011;39397;53.204;5.778;2023-12-20T05:49:24;27.67;;;4.25;;
53519;SDS011;39397;53.204;5.778;2023-12-20T05:51:49;16.15;;;3.85;;
53519;SDS011;39397;53.204;5.778;2023-12-20T05:54:16;30.30;;;4.30;;
53519;SDS011;39397;53.204;5.778;2023-12-20T05:56:42;18.10;;;2.75;;
53519;SDS011;39397;53.204;5.778;2023-12-20T05:59:07;23.27;;;4.65;;
53519;SDS011;39397;53.204;5.778;2023-12-20T06:01:33;20.20;;;4.32;;
53519;SDS011;39397;53.204;5.778;2023-12-20T06:03:59;20.10;;;4.65;;
53519;SDS011;39397;53.204;5.778;2023-12-20T06:06:24;22.73;;;4.32;;
53519;SDS011;39397;53.204;5.778;2023-12-20T06:08:50;20.90;;;3.50;;
53519;SDS011;39397;53.204;5.778;2023-12-20T06:11:16;23.35;;;3.85;;
53519;SDS011;39397;53.204;5.778;2023-12-20T06:13:42;27.80;;;5.57;;
53519;SDS011;39397;53.204;5.778;2023-12-20T06:16:07;26.30;;;5.28;;
53519;SDS011;39397;53.204;5.778;2023-12-20T06:18:33;21.25;;;4.55;;
53519;SDS011;39397;53.204;5.778;2023-12-20T06:20:59;22.92;;;4.90;;
53519;SDS011;39397;53.204;5.778;2023-12-20T06:23:24;22.60;;;3.63;;
53519;SDS011;39397;53.204;5.778;2023-12-20T06:25:50;24.63;;;4.00;;
53519;SDS011;39397;53.204;5.778;2023-12-20T06:28:16;27.05;;;5.03;;
53519;SDS011;39397;53.204;5.778;2023-12-20T06:30:41;25.38;;;4.90;;
53519;SDS011;39397;53.204;5.778;2023-12-20T06:33:07;20.15;;;4.85;;
53519;SDS011;39397;53.204;5.778;2023-12-20T06:35:34;25.52;;;5.70;;
53519;SDS011;39397;53.204;5.778;2023-12-20T06:38:00;28.95;;;5.03;;
53519;SDS011;39397;53.204;5.778;2023-12-20T06:40:26;23.33;;;5.32;;
53519;SDS011;39397;53.204;5.778;2023-12-20T06:42:52;16.67;;;3.47;;
53519;SDS011;39397;53.204;5.778;2023-12-20T06:45:17;22.92;;;4.40;;
53519;SDS011;39397;53.204;5.778;2023-12-20T06:47:43;32.55;;;5.03;;
53519;SDS011;39397;53.204;5.778;2023-12-20T06:50:09;23.02;;;4.82;;
53519;SDS011;39397;53.204;5.778;2023-12-20T06:52:34;24.73;;;4.85;;
53519;SDS011;39397;53.204;5.778;2023-12-20T06:55:00;18.60;;;3.15;;
53519;SDS011;39397;53.204;5.778;2023-12-20T06:57:26;23.15;;;4.20;;
53519;SDS011;39397;53.204;5.778;2023-12-20T06:59:52;26.50;;;4.43;;
53519;SDS011;39397;53.204;5.778;2023-12-20T07:02:18;17.27;;;3.70;;
53519;SDS011;39397;53.204;5.778;2023-12-20T07:04:44;23.77;;;4.50;;
53519;SDS011;39397;53.204;5.778;2023-12-20T07:07:10;20.00;;;3.88;;
53519;SDS011;39397;53.204;5.778;2023-12-20T07:09:35;22.63;;;3.60;;
53519;SDS011;39397;53.204;5.778;2023-12-20T07:12:02;23.83;;;5.30;;
53519;SDS011;39397;53.204;5.778;2023-12-20T07:14:28;27.25;;;3.42;;
53519;SDS011;39397;53.204;5.778;2023-12-20T07:16:54;24.38;;;4.22;;
53519;SDS011;39397;53.204;5.778;2023-12-20T07:19:20;25.58;;;5.40;;
53519;SDS011;39397;53.204;5.778;2023-12-20T07:21:45;20.17;;;3.78;;
53519;SDS011;39397;53.204;5.778;2023-12-20T07:24:11;12.75;;;2.40;;
53519;SDS011;39397;53.204;5.778;2023-12-20T07:26:37;20.65;;;4.70;;
53519;SDS011;39397;53.204;5.778;2023-12-20T07:29:03;22.90;;;4.10;;
53519;SDS011;39397;53.204;5.778;2023-12-20T07:31:29;22.30;;;3.72;;
53519;SDS011;39397;53.204;5.778;2023-12-20T07:33:55;15.63;;;3.72;;
53519;SDS011;39397;53.204;5.778;2023-12-20T07:36:21;21.40;;;4.05;;
53519;SDS011;39397;53.204;5.778;2023-12-20T07:38:47;22.20;;;4.85;;
53519;SDS011;39397;53.204;5.778;2023-12-20T07:41:13;26.23;;;4.75;;
53519;SDS011;39397;53.204;5.778;2023-12-20T07:43:40;26.85;;;5.13;;
53519;SDS011;39397;53.204;5.778;2023-12-20T07:46:07;20.17;;;3.55;;
53519;SDS011;39397;53.204;5.778;2023-12-20T07:48:36;24.98;;;4.28;;
53519;SDS011;39397;53.204;5.778;2023-12-20T07:51:03;30.85;;;4.80;;
53519;SDS011;39397;53.204;5.778;2023-12-20T07:53:30;16.73;;;2.75;;
53519;SDS011;39397;53.204;5.778;2023-12-20T07:55:56;10.70;;;2.17;;
53519;SDS011;39397;53.204;5.778;2023-12-20T07:58:22;9.80;;;1.40;;
53519;SDS011;39397;53.204;5.778;2023-12-20T08:00:47;9.65;;;1.75;;
53519;SDS011;39397;53.204;5.778;2023-12-20T08:03:13;12.65;;;2.50;;
53519;SDS011;39397;53.204;5.778;2023-12-20T08:05:39;12.60;;;2.72;;
53519;SDS011;39397;53.204;5.778;2023-12-20T08:08:05;13.27;;;2.20;;
53519;SDS011;39397;53.204;5.778;2023-12-20T08:10:31;17.92;;;3.63;;
53519;SDS011;39397;53.204;5.778;2023-12-20T08:12:57;24.42;;;4.28;;
53519;SDS011;39397;53.204;5.778;2023-12-20T08:15:23;25.50;;;5.05;;
53519;SDS011;39397;53.204;5.778;2023-12-20T08:17:49;20.17;;;4.72;;
53519;SDS011;39397;53.204;5.778;2023-12-20T08:20:18;26.80;;;4.45;;
53519;SDS011;39397;53.204;5.778;2023-12-20T08:22:44;22.98;;;5.10;;
53519;SDS011;39397;53.204;5.778;2023-12-20T08:25:09;25.95;;;4.82;;
53519;SDS011;39397;53.204;5.778;2023-12-20T08:27:41;19.70;;;3.42;;
53519;SDS011;39397;53.204;5.778;2023-12-20T08:30:10;24.98;;;5.00;;
53519;SDS011;39397;53.204;5.778;2023-12-20T08:32:36;24.08;;;4.35;;
53519;SDS011;39397;53.204;5.778;2023-12-20T08:35:02;30.52;;;5.10;;
53519;SDS011;39397;53.204;5.778;2023-12-20T08:37:28;29.00;;;4.78;;
53519;SDS011;39397;53.204;5.778;2023-12-20T08:39:55;18.88;;;3.80;;
53519;SDS011;39397;53.204;5.778;2023-12-20T08:42:21;24.60;;;3.70;;
53519;SDS011;39397;53.204;5.778;2023-12-20T08:44:46;23.35;;;4.82;;
53519;SDS011;39397;53.204;5.778;2023-12-20T08:47:12;26.17;;;4.93;;
53519;SDS011;39397;53.204;5.778;2023-12-20T08:49:40;25.70;;;5.80;;
53519;SDS011;39397;53.204;5.778;2023-12-20T08:52:06;14.73;;;3.22;;
53519;SDS011;39397;53.204;5.778;2023-12-20T08:54:32;6.18;;;1.08;;
53519;SDS011;39397;53.204;5.778;2023-12-20T08:56:57;14.48;;;2.40;;
53519;SDS011;39397;53.204;5.778;2023-12-20T08:59:23;7.63;;;1.67;;
53519;SDS011;39397;53.204;5.778;2023-12-20T09:01:49;8.70;;;1.48;;
53519;SDS011;39397;53.204;5.778;2023-12-20T09:04:19;15.73;;;1.90;;
53519;SDS011;39397;53.204;5.778;2023-12-20T09:06:45;9.55;;;1.70;;
53519;SDS011;39397;53.204;5.778;2023-12-20T09:09:11;14.10;;;1.63;;
53519;SDS011;39397;53.204;5.778;2023-12-20T09:11:38;11.35;;;1.80;;
53519;SDS011;39397;53.204;5.778;2023-12-20T09:14:04;7.30;;;1.30;;
53519;SDS011;39397;53.204;5.778;2023-12-20T09:16:30;11.73;;;1.30;;
53519;SDS011;39397;53.204;5.778;2023-12-20T09:18:56;13.02;;;1.90;;
53519;SDS011;39397;53.204;5.778;2023-12-20T09:21:23;15.02;;;1.63;;
53519;SDS011;39397;53.204;5.778;2023-12-20T09:23:49;12.75;;;2.00;;
53519;SDS011;39397;53.204;5.778;2023-12-20T09:26:14;14.05;;;1.80;;
53519;SDS011;39397;53.204;5.778;2023-12-20T09:28:40;13.90;;;2.20;;
53519;SDS011;39397;53.204;5.778;2023-12-20T09:31:06;14.13;;;2.35;;
53519;SDS011;39397;53.204;5.778;2023-12-20T09:33:32;17.80;;;2.33;;
53519;SDS011;39397;53.204;5.778;2023-12-20T09:35:58;12.55;;;2.20;;
53519;SDS011;39397;53.204;5.778;2023-12-20T09:38:24;13.82;;;2.47;;
53519;SDS011;39397;53.204;5.778;2023-12-20T09:40:50;13.75;;;1.63;;
53519;SDS011;39397;53.204;5.778;2023-12-20T09:43:17;17.85;;;2.20;;
53519;SDS011;39397;53.204;5.778;2023-12-20T09:45:45;13.40;;;3.55;;
53519;SDS011;39397;53.204;5.778;2023-12-20T09:48:13;14.05;;;1.92;;
53519;SDS011;39397;53.204;5.778;2023-12-20T09:50:41;10.43;;;2.10;;
53519;SDS011;39397;53.204;5.778;2023-12-20T09:53:08;8.43;;;2.55;;
53519;SDS011;39397;53.204;5.778;2023-12-20T09:55:36;13.43;;;1.50;;
53519;SDS011;39397;53.204;5.778;2023-12-20T09:58:04;13.77;;;1.48;;
53519;SDS011;39397;53.204;5.778;2023-12-20T10:00:31;7.68;;;1.42;;
53519;SDS011;39397;53.204;5.778;2023-12-20T10:02:58;13.82;;;1.50;;
53519;SDS011;39397;53.204;5.778;2023-12-20T10:05:29;10.27;;;1.95;;
53519;SDS011;39397;53.204;5.778;2023-12-20T10:07:58;11.13;;;2.40;;
53519;SDS011;39397;53.204;5.778;2023-12-20T10:10:25;14.15;;;2.80;;
53519;SDS011;39397;53.204;5.778;2023-12-20T10:13:04;11.13;;;1.67;;
53519;SDS011;39397;53.204;5.778;2023-12-20T10:15:35;11.50;;;2.03;;
53519;SDS011;39397;53.204;5.778;2023-12-20T10:18:02;9.02;;;1.83;;
53519;SDS011;39397;53.204;5.778;2023-12-20T10:20:29;13.70;;;2.17;;
53519;SDS011;39397;53.204;5.778;2023-12-20T10:22:56;8.73;;;1.60;;
53519;SDS011;39397;53.204;5.778;2023-12-20T10:25:22;15.30;;;3.25;;
53519;SDS011;39397;53.204;5.778;2023-12-20T10:27:49;10.18;;;1.88;;
53519;SDS011;39397;53.204;5.778;2023-12-20T10:30:33;8.88;;;1.50;;
53519;SDS011;39397;53.204;5.778;2023-12-20T10:32:59;14.05;;;2.10;;
53519;SDS011;39397;53.204;5.778;2023-12-20T10:35:24;14.75;;;2.00;;
53519;SDS011;39397;53.204;5.778;2023-12-20T10:37:51;12.27;;;2.08;;
53519;SDS011;39397;53.204;5.778;2023-12-20T10:40:21;17.50;;;2.83;;
53519;SDS011;39397;53.204;5.778;2023-12-20T10:42:48;13.30;;;2.60;;
53519;SDS011;39397;53.204;5.778;2023-12-20T10:45:15;19.42;;;2.70;;
53519;SDS011;39397;53.204;5.778;2023-12-20T10:47:43;9.75;;;1.58;;
53519;SDS011;39397;53.204;5.778;2023-12-20T10:50:11;20.67;;;2.38;;
53519;SDS011;39397;53.204;5.778;2023-12-20T10:52:37;9.85;;;2.22;;
53519;SDS011;39397;53.204;5.778;2023-12-20T10:55:05;14.93;;;1.58;;
53519;SDS011;39397;53.204;5.778;2023-12-20T10:57:31;9.00;;;1.95;;
53519;SDS011;39397;53.204;5.778;2023-12-20T11:00:00;14.48;;;2.80;;
53519;SDS011;39397;53.204;5.778;2023-12-20T11:02:30;15.30;;;2.40;;
53519;SDS011;39397;53.204;5.778;2023-12-20T11:07:36;10.18;;;1.98;;
53519;SDS011;39397;53.204;5.778;2023-12-20T11:10:21;18.27;;;2.58;;
53519;SDS011;39397;53.204;5.778;2023-12-20T11:15:17;19.63;;;4.00;;
53519;SDS011;39397;53.204;5.778;2023-12-20T11:17:44;13.55;;;3.00;;
53519;SDS011;39397;53.204;5.778;2023-12-20T11:20:11;14.18;;;2.17;;
53519;SDS011;39397;53.204;5.778;2023-12-20T11:22:37;15.48;;;2.63;;
53519;SDS011;39397;53.204;5.778;2023-12-20T11:25:07;18.08;;;2.58;;
53519;SDS011;39397;53.204;5.778;2023-12-20T11:27:36;11.15;;;1.90;;
53519;SDS011;39397;53.204;5.778;2023-12-20T11:30:06;17.10;;;2.65;;
53519;SDS011;39397;53.204;5.778;2023-12-20T11:32:37;11.57;;;2.08;;
53519;SDS011;39397;53.204;5.778;2023-12-20T11:37:35;11.05;;;2.10;;
53519;SDS011;39397;53.204;5.778;2023-12-20T11:40:03;14.30;;;2.00;;
53519;SDS011;39397;53.204;5.778;2023-12-20T11:42:50;13.95;;;2.15;;
53519;SDS011;39397;53.204;5.778;2023-12-20T11:45:21;11.38;;;2.10;;
53519;SDS011;39397;53.204;5.778;2023-12-20T11:47:50;11.30;;;1.83;;
53519;SDS011;39397;53.204;5.778;2023-12-20T11:50:20;14.52;;;2.78;;
53519;SDS011;39397;53.204;5.778;2023-12-20T11:52:47;19.10;;;2.75;;
53519;SDS011;39397;53.204;5.778;2023-12-20T11:55:14;20.95;;;3.08;;
53519;SDS011;39397;53.204;5.778;2023-12-20T11:57:40;12.63;;;1.92;;
53519;SDS011;39397;53.204;5.778;2023-12-20T12:00:06;10.60;;;2.13;;
53519;SDS011;39397;53.204;5.778;2023-12-20T12:02:33;15.57;;;3.10;;
53519;SDS011;39397;53.204;5.778;2023-12-20T12:04:59;11.75;;;2.20;;
53519;SDS011;39397;53.204;5.778;2023-12-20T12:07:25;12.68;;;2.28;;
53519;SDS011;39397;53.204;5.778;2023-12-20T12:09:51;11.75;;;2.03;;
53519;SDS011;39397;53.204;5.778;2023-12-20T12:12:17;12.40;;;2.00;;
53519;SDS011;39397;53.204;5.778;2023-12-20T12:14:44;16.65;;;2.30;;
53519;SDS011;39397;53.204;5.778;2023-12-20T12:17:14;14.35;;;2.47;;
53519;SDS011;39397;53.204;5.778;2023-12-20T12:19:40;13.25;;;2.33;;
53519;SDS011;39397;53.204;5.778;2023-12-20T12:22:10;14.27;;;2.25;;
53519;SDS011;39397;53.204;5.778;2023-12-20T12:24:42;10.95;;;2.08;;
53519;SDS011;39397;53.204;5.778;2023-12-20T12:27:09;10.85;;;2.42;;
53519;SDS011;39397;53.204;5.778;2023-12-20T12:29:35;8.35;;;1.73;;
53519;SDS011;39397;53.204;5.778;2023-12-20T12:32:08;12.63;;;1.83;;
53519;SDS011;39397;53.204;5.778;2023-12-20T12:34:35;10.98;;;2.10;;
53519;SDS011;39397;53.204;5.778;2023-12-20T12:37:01;9.18;;;1.70;;
53519;SDS011;39397;53.204;5.778;2023-12-20T12:39:29;11.25;;;1.60;;
53519;SDS011;39397;53.204;5.778;2023-12-20T12:41:55;9.95;;;1.30;;
53519;SDS011;39397;53.204;5.778;2023-12-20T12:44:21;9.98;;;1.67;;
53519;SDS011;39397;53.204;5.778;2023-12-20T12:46:48;8.00;;;1.17;;
53519;SDS011;39397;53.204;5.778;2023-12-20T12:49:19;10.60;;;1.40;;
53519;SDS011;39397;53.204;5.778;2023-12-20T12:51:46;11.85;;;1.85;;
53519;SDS011;39397;53.204;5.778;2023-12-20T12:54:12;10.75;;;1.80;;
53519;SDS011;39397;53.204;5.778;2023-12-20T12:56:40;10.15;;;2.10;;
53519;SDS011;39397;53.204;5.778;2023-12-20T12:59:06;9.23;;;1.65;;
53519;SDS011;39397;53.204;5.778;2023-12-20T13:01:32;14.75;;;2.35;;
53519;SDS011;39397;53.204;5.778;2023-12-20T13:03:58;11.13;;;1.50;;
53519;SDS011;39397;53.204;5.778;2023-12-20T13:06:23;9.95;;;1.83;;
53519;SDS011;39397;53.204;5.778;2023-12-20T13:08:49;8.35;;;1.23;;
53519;SDS011;39397;53.204;5.778;2023-12-20T13:11:15;8.45;;;1.73;;
53519;SDS011;39397;53.204;5.778;2023-12-20T13:13:41;8.13;;;1.38;;
53519;SDS011;39397;53.204;5.778;2023-12-20T13:16:07;9.95;;;1.40;;
53519;SDS011;39397;53.204;5.778;2023-12-20T13:18:33;11.95;;;1.38;;
53519;SDS011;39397;53.204;5.778;2023-12-20T13:20:58;9.45;;;1.83;;
53519;SDS011;39397;53.204;5.778;2023-12-20T13:23:24;9.98;;;1.38;;
53519;SDS011;39397;53.204;5.778;2023-12-20T13:25:50;6.68;;;1.92;;
53519;SDS011;39397;53.204;5.778;2023-12-20T13:28:15;8.20;;;2.03;;
53519;SDS011;39397;53.204;5.778;2023-12-20T13:30:41;10.18;;;1.38;;
53519;SDS011;39397;53.204;5.778;2023-12-20T13:33:07;7.00;;;1.15;;
53519;SDS011;39397;53.204;5.778;2023-12-20T13:35:33;8.32;;;1.02;;
53519;SDS011;39397;53.204;5.778;2023-12-20T13:37:59;8.65;;;1.40;;
53519;SDS011;39397;53.204;5.778;2023-12-20T13:40:25;9.07;;;1.15;;
53519;SDS011;39397;53.204;5.778;2023-12-20T13:42:51;8.00;;;1.27;;
53519;SDS011;39397;53.204;5.778;2023-12-20T13:45:17;8.38;;;1.52;;
53519;SDS011;39397;53.204;5.778;2023-12-20T13:47:43;11.13;;;1.70;;
53519;SDS011;39397;53.204;5.778;2023-12-20T13:50:09;9.35;;;1.02;;
53519;SDS011;39397;53.204;5.778;2023-12-20T13:52:35;7.50;;;1.15;;
53519;SDS011;39397;53.204;5.778;2023-12-20T13:55:01;6.07;;;1.10;;
53519;SDS011;39397;53.204;5.778;2023-12-20T13:57:27;10.77;;;1.25;;
53519;SDS011;39397;53.204;5.778;2023-12-20T13:59:54;8.23;;;1.80;;
53519;SDS011;39397;53.204;5.778;2023-12-20T14:02:22;13.98;;;2.42;;
53519;SDS011;39397;53.204;5.778;2023-12-20T14:04:48;11.30;;;1.55;;
53519;SDS011;39397;53.204;5.778;2023-12-20T14:07:14;10.55;;;2.00;;
53519;SDS011;39397;53.204;5.778;2023-12-20T14:09:40;11.70;;;1.27;;
53519;SDS011;39397;53.204;5.778;2023-12-20T14:12:10;14.30;;;2.92;;
53519;SDS011;39397;53.204;5.778;2023-12-20T14:14:36;13.55;;;1.90;;
53519;SDS011;39397;53.204;5.778;2023-12-20T14:17:02;15.15;;;2.22;;
53519;SDS011;39397;53.204;5.778;2023-12-20T14:19:29;14.52;;;2.25;;
53519;SDS011;39397;53.204;5.778;2023-12-20T14:21:55;16.23;;;2.00;;
53519;SDS011;39397;53.204;5.778;2023-12-20T14:24:20;10.30;;;2.40;;
53519;SDS011;39397;53.204;5.778;2023-12-20T14:26:46;12.10;;;2.40;;
53519;SDS011;39397;53.204;5.778;2023-12-20T14:29:12;13.48;;;2.55;;
53519;SDS011;39397;53.204;5.778;2023-12-20T14:31:37;14.05;;;3.08;;
53519;SDS011;39397;53.204;5.778;2023-12-20T14:34:04;21.15;;;2.85;;
53519;SDS011;39397;53.204;5.778;2023-12-20T14:36:30;26.60;;;3.10;;
53519;SDS011;39397;53.204;5.778;2023-12-20T14:38:56;21.00;;;2.95;;